Huvudsida
METAR-TAF:

METAR-TAF

Flygplatser :

Stockholm-Bromma flygplats

Stockholm, Sverige

latitud: 59-21N, longitud: 017-57E, höjd: 14 m

Aktuellt väderrapport

Denna rapport gjordes för 27 minuter sedan, klockan 15:20 UTC
Vind 5 kt från syd/sydväst
Temperatur 6°C
Fuktighet 87%
Tryck 995 hPa
Sikt 10 km eller mer
Brutna moln på en höjd av 2300 ft
lätt regn

METAR: ESSB 191520Z 21005KT 9999 -RA BKN023 06/04 Q0995 R12/19//75

Tid: 16:47 (15:47 UTC)

Väderprognos

Denna rapport gjordes för 1 timme och 17 minuter sedan, klockan 14:30 UTC
Prognos gäller från 19 kl. 15 UTC till 19 kl. 21 UTC
Vind 8 kt från syd/sydväst
Sikt 10 km eller mer
Brutna moln på en höjd av 3500 ft

TAF: ESSB 191430Z 1915/1921 21008KT 9999 BKN035

Aktuella väderrapporter och prognoser från 4000 flygplatser (METAR- och TAF-rapporter).

De tillgängliga stationerna syns som gula och röda prickar på kartan.

För musen över prickarna för att se namnen på stationerna.

Klicka sedan för att få väderrapporter och prognoser.

För att ändra kartan: Klicka på de gröna knapparna med ett svart kors på för att zooma in; den gröna knappen med ett streck på för att zooma ut; eller på de gröna pilarna för angränsande kartor.


METAR-TAF: